sensor_id;sensor_type;location;lat;lon;timestamp;temperature;humidity
62573;DHT22;48626;51.678;5.806;2023-06-14T00:01:50;22.00;99.90
62573;DHT22;48626;51.678;5.806;2023-06-14T00:04:16;21.90;99.90
62573;DHT22;48626;51.678;5.806;2023-06-14T00:06:42;21.90;99.90
62573;DHT22;48626;51.678;5.806;2023-06-14T00:09:11;21.90;99.90
62573;DHT22;48626;51.678;5.806;2023-06-14T00:11:38;21.90;99.90
62573;DHT22;48626;51.678;5.806;2023-06-14T00:14:05;21.90;99.90
62573;DHT22;48626;51.678;5.806;2023-06-14T00:16:31;21.80;99.90
62573;DHT22;48626;51.678;5.806;2023-06-14T00:18:58;21.80;99.90
62573;DHT22;48626;51.678;5.806;2023-06-14T00:21:24;21.70;99.90
62573;DHT22;48626;51.678;5.806;2023-06-14T00:23:50;21.70;99.90
62573;DHT22;48626;51.678;5.806;2023-06-14T00:26:16;21.70;99.90
62573;DHT22;48626;51.678;5.806;2023-06-14T00:28:41;21.60;99.90
62573;DHT22;48626;51.678;5.806;2023-06-14T00:31:07;21.60;99.90
62573;DHT22;48626;51.678;5.806;2023-06-14T00:33:33;21.50;99.90
62573;DHT22;48626;51.678;5.806;2023-06-14T00:35:59;21.50;99.90
62573;DHT22;48626;51.678;5.806;2023-06-14T00:38:24;21.50;99.90
62573;DHT22;48626;51.678;5.806;2023-06-14T00:40:50;21.40;99.90
62573;DHT22;48626;51.678;5.806;2023-06-14T00:43:16;21.40;99.90
62573;DHT22;48626;51.678;5.806;2023-06-14T00:45:41;21.40;99.90
62573;DHT22;48626;51.678;5.806;2023-06-14T00:48:08;21.30;99.90
62573;DHT22;48626;51.678;5.806;2023-06-14T00:50:35;21.30;99.90
62573;DHT22;48626;51.678;5.806;2023-06-14T00:53:02;21.30;99.90
62573;DHT22;48626;51.678;5.806;2023-06-14T00:55:28;21.30;99.90
62573;DHT22;48626;51.678;5.806;2023-06-14T00:57:55;21.20;99.90
62573;DHT22;48626;51.678;5.806;2023-06-14T01:00:21;21.10;99.90
62573;DHT22;48626;51.678;5.806;2023-06-14T01:02:47;21.10;99.90
62573;DHT22;48626;51.678;5.806;2023-06-14T01:05:15;21.00;99.90
62573;DHT22;48626;51.678;5.806;2023-06-14T01:13:20;20.90;99.90
62573;DHT22;48626;51.678;5.806;2023-06-14T01:15:47;20.80;99.90
62573;DHT22;48626;51.678;5.806;2023-06-14T01:18:13;20.80;99.90
62573;DHT22;48626;51.678;5.806;2023-06-14T01:20:46;20.70;99.90
62573;DHT22;48626;51.678;5.806;2023-06-14T01:23:17;20.60;99.90
62573;DHT22;48626;51.678;5.806;2023-06-14T01:25:43;20.50;99.90
62573;DHT22;48626;51.678;5.806;2023-06-14T01:28:10;20.40;99.90
62573;DHT22;48626;51.678;5.806;2023-06-14T01:30:41;20.40;99.90
62573;DHT22;48626;51.678;5.806;2023-06-14T01:33:18;20.30;99.90
62573;DHT22;48626;51.678;5.806;2023-06-14T01:35:48;20.20;99.90
62573;DHT22;48626;51.678;5.806;2023-06-14T01:38:15;20.10;99.90
62573;DHT22;48626;51.678;5.806;2023-06-14T01:40:44;20.10;99.90
62573;DHT22;48626;51.678;5.806;2023-06-14T01:43:13;20.00;99.90
62573;DHT22;48626;51.678;5.806;2023-06-14T01:45:41;20.00;99.90
62573;DHT22;48626;51.678;5.806;2023-06-14T01:48:07;19.90;99.90
62573;DHT22;48626;51.678;5.806;2023-06-14T01:50:34;19.90;99.90
62573;DHT22;48626;51.678;5.806;2023-06-14T01:53:00;19.90;99.90
62573;DHT22;48626;51.678;5.806;2023-06-14T01:55:26;19.90;99.90
62573;DHT22;48626;51.678;5.806;2023-06-14T01:57:52;19.90;99.90
62573;DHT22;48626;51.678;5.806;2023-06-14T02:00:18;19.80;99.90
62573;DHT22;48626;51.678;5.806;2023-06-14T02:02:45;19.80;99.90
62573;DHT22;48626;51.678;5.806;2023-06-14T02:05:11;19.80;99.90
62573;DHT22;48626;51.678;5.806;2023-06-14T02:07:37;19.80;99.90
62573;DHT22;48626;51.678;5.806;2023-06-14T02:10:04;19.80;99.90
62573;DHT22;48626;51.678;5.806;2023-06-14T02:12:30;19.80;99.90
62573;DHT22;48626;51.678;5.806;2023-06-14T02:14:56;19.80;99.90
62573;DHT22;48626;51.678;5.806;2023-06-14T02:17:22;19.70;99.90
62573;DHT22;48626;51.678;5.806;2023-06-14T02:19:48;19.70;99.90
62573;DHT22;48626;51.678;5.806;2023-06-14T02:22:15;19.70;99.90
62573;DHT22;48626;51.678;5.806;2023-06-14T02:24:41;19.70;99.90
62573;DHT22;48626;51.678;5.806;2023-06-14T02:27:07;19.70;99.90
62573;DHT22;48626;51.678;5.806;2023-06-14T02:29:35;19.60;99.90
62573;DHT22;48626;51.678;5.806;2023-06-14T02:32:01;19.50;99.90
62573;DHT22;48626;51.678;5.806;2023-06-14T02:34:27;19.50;99.90
62573;DHT22;48626;51.678;5.806;2023-06-14T02:36:53;19.50;99.90
62573;DHT22;48626;51.678;5.806;2023-06-14T02:39:20;19.40;99.90
62573;DHT22;48626;51.678;5.806;2023-06-14T02:41:49;19.40;99.90
62573;DHT22;48626;51.678;5.806;2023-06-14T02:44:17;19.30;99.90
62573;DHT22;48626;51.678;5.806;2023-06-14T02:46:43;19.30;99.90
62573;DHT22;48626;51.678;5.806;2023-06-14T02:49:10;19.30;99.90
62573;DHT22;48626;51.678;5.806;2023-06-14T02:51:35;19.20;99.90
62573;DHT22;48626;51.678;5.806;2023-06-14T02:54:01;19.20;99.90
62573;DHT22;48626;51.678;5.806;2023-06-14T02:56:27;19.20;99.90
62573;DHT22;48626;51.678;5.806;2023-06-14T02:58:53;19.10;99.90
62573;DHT22;48626;51.678;5.806;2023-06-14T03:01:19;19.10;99.90
62573;DHT22;48626;51.678;5.806;2023-06-14T03:03:46;19.10;99.90
62573;DHT22;48626;51.678;5.806;2023-06-14T03:06:12;19.10;99.90
62573;DHT22;48626;51.678;5.806;2023-06-14T03:08:40;19.10;99.90
62573;DHT22;48626;51.678;5.806;2023-06-14T03:11:07;19.10;99.90
62573;DHT22;48626;51.678;5.806;2023-06-14T03:13:36;19.00;99.90
62573;DHT22;48626;51.678;5.806;2023-06-14T03:16:03;19.00;99.90
62573;DHT22;48626;51.678;5.806;2023-06-14T03:18:32;19.00;99.90
62573;DHT22;48626;51.678;5.806;2023-06-14T03:21:01;18.90;99.90
62573;DHT22;48626;51.678;5.806;2023-06-14T03:23:27;18.90;99.90
62573;DHT22;48626;51.678;5.806;2023-06-14T03:25:53;18.80;99.90
62573;DHT22;48626;51.678;5.806;2023-06-14T03:28:18;18.80;99.90
62573;DHT22;48626;51.678;5.806;2023-06-14T03:30:44;18.80;99.90
62573;DHT22;48626;51.678;5.806;2023-06-14T03:33:10;18.70;99.90
62573;DHT22;48626;51.678;5.806;2023-06-14T03:35:36;18.70;99.90
62573;DHT22;48626;51.678;5.806;2023-06-14T03:38:02;18.70;99.90
62573;DHT22;48626;51.678;5.806;2023-06-14T03:40:29;18.60;99.90
62573;DHT22;48626;51.678;5.806;2023-06-14T03:42:55;18.60;99.90
62573;DHT22;48626;51.678;5.806;2023-06-14T03:45:21;18.60;99.90
62573;DHT22;48626;51.678;5.806;2023-06-14T03:47:47;18.50;99.90
62573;DHT22;48626;51.678;5.806;2023-06-14T03:50:13;18.50;99.90
62573;DHT22;48626;51.678;5.806;2023-06-14T03:52:38;18.50;99.90
62573;DHT22;48626;51.678;5.806;2023-06-14T03:55:05;18.40;99.90
62573;DHT22;48626;51.678;5.806;2023-06-14T03:57:30;18.40;99.90
62573;DHT22;48626;51.678;5.806;2023-06-14T03:59:56;18.40;99.90
62573;DHT22;48626;51.678;5.806;2023-06-14T04:02:22;18.40;99.90
62573;DHT22;48626;51.678;5.806;2023-06-14T04:04:48;18.40;99.90
62573;DHT22;48626;51.678;5.806;2023-06-14T04:07:15;18.50;99.90
62573;DHT22;48626;51.678;5.806;2023-06-14T04:09:45;18.40;99.90
62573;DHT22;48626;51.678;5.806;2023-06-14T04:12:11;18.40;99.90
62573;DHT22;48626;51.678;5.806;2023-06-14T04:14:40;18.40;99.90
62573;DHT22;48626;51.678;5.806;2023-06-14T04:17:06;18.40;99.90
62573;DHT22;48626;51.678;5.806;2023-06-14T04:19:32;18.40;99.90
62573;DHT22;48626;51.678;5.806;2023-06-14T04:21:58;18.40;99.90
62573;DHT22;48626;51.678;5.806;2023-06-14T04:24:26;18.30;99.90
62573;DHT22;48626;51.678;5.806;2023-06-14T04:26:58;18.30;99.90
62573;DHT22;48626;51.678;5.806;2023-06-14T04:29:24;18.30;99.90
62573;DHT22;48626;51.678;5.806;2023-06-14T04:31:53;18.30;99.90
62573;DHT22;48626;51.678;5.806;2023-06-14T04:34:20;18.30;99.90
62573;DHT22;48626;51.678;5.806;2023-06-14T04:36:47;18.30;99.90
62573;DHT22;48626;51.678;5.806;2023-06-14T04:39:19;18.30;99.90
62573;DHT22;48626;51.678;5.806;2023-06-14T04:41:44;18.20;99.90
62573;DHT22;48626;51.678;5.806;2023-06-14T04:44:10;18.20;99.90
62573;DHT22;48626;51.678;5.806;2023-06-14T04:46:38;18.20;99.90
62573;DHT22;48626;51.678;5.806;2023-06-14T04:49:14;18.30;99.90
62573;DHT22;48626;51.678;5.806;2023-06-14T04:51:50;18.30;99.90
62573;DHT22;48626;51.678;5.806;2023-06-14T04:54:23;18.30;99.90
62573;DHT22;48626;51.678;5.806;2023-06-14T04:56:51;18.30;99.90
62573;DHT22;48626;51.678;5.806;2023-06-14T04:59:17;18.30;99.90
62573;DHT22;48626;51.678;5.806;2023-06-14T05:01:42;18.30;99.90
62573;DHT22;48626;51.678;5.806;2023-06-14T05:04:13;18.30;99.90
62573;DHT22;48626;51.678;5.806;2023-06-14T05:06:40;18.30;99.90
62573;DHT22;48626;51.678;5.806;2023-06-14T05:09:06;18.30;99.90
62573;DHT22;48626;51.678;5.806;2023-06-14T05:11:31;18.30;99.90
62573;DHT22;48626;51.678;5.806;2023-06-14T05:13:57;18.30;99.90
62573;DHT22;48626;51.678;5.806;2023-06-14T05:16:23;18.40;99.90
62573;DHT22;48626;51.678;5.806;2023-06-14T05:18:51;18.40;99.90
62573;DHT22;48626;51.678;5.806;2023-06-14T05:21:17;18.50;99.90
62573;DHT22;48626;51.678;5.806;2023-06-14T05:23:44;18.50;99.90
62573;DHT22;48626;51.678;5.806;2023-06-14T05:26:10;18.60;99.90
62573;DHT22;48626;51.678;5.806;2023-06-14T05:28:36;18.60;99.90
62573;DHT22;48626;51.678;5.806;2023-06-14T05:31:02;18.70;99.90
62573;DHT22;48626;51.678;5.806;2023-06-14T05:33:28;18.80;99.90
62573;DHT22;48626;51.678;5.806;2023-06-14T05:35:53;18.90;99.90
62573;DHT22;48626;51.678;5.806;2023-06-14T05:38:19;19.00;99.90
62573;DHT22;48626;51.678;5.806;2023-06-14T05:40:45;19.10;99.90
62573;DHT22;48626;51.678;5.806;2023-06-14T05:43:10;19.20;99.90
62573;DHT22;48626;51.678;5.806;2023-06-14T05:45:36;19.20;99.90
62573;DHT22;48626;51.678;5.806;2023-06-14T05:48:02;19.20;99.90
62573;DHT22;48626;51.678;5.806;2023-06-14T05:50:30;19.30;99.90
62573;DHT22;48626;51.678;5.806;2023-06-14T05:52:56;19.40;99.90
62573;DHT22;48626;51.678;5.806;2023-06-14T05:55:21;19.50;99.90
62573;DHT22;48626;51.678;5.806;2023-06-14T05:57:47;19.60;99.90
62573;DHT22;48626;51.678;5.806;2023-06-14T06:00:14;19.60;99.90
62573;DHT22;48626;51.678;5.806;2023-06-14T06:02:45;19.70;99.90
62573;DHT22;48626;51.678;5.806;2023-06-14T06:05:12;19.80;99.90
62573;DHT22;48626;51.678;5.806;2023-06-14T06:07:38;19.80;99.90
62573;DHT22;48626;51.678;5.806;2023-06-14T06:10:10;19.90;99.90
62573;DHT22;48626;51.678;5.806;2023-06-14T06:12:36;19.90;99.90
62573;DHT22;48626;51.678;5.806;2023-06-14T06:15:01;19.90;99.90
62573;DHT22;48626;51.678;5.806;2023-06-14T06:17:28;19.90;99.90
62573;DHT22;48626;51.678;5.806;2023-06-14T06:19:54;20.00;99.90
62573;DHT22;48626;51.678;5.806;2023-06-14T06:22:19;20.00;99.90
62573;DHT22;48626;51.678;5.806;2023-06-14T06:24:45;20.10;99.90
62573;DHT22;48626;51.678;5.806;2023-06-14T06:27:11;20.20;99.90
62573;DHT22;48626;51.678;5.806;2023-06-14T06:29:38;20.30;99.90
62573;DHT22;48626;51.678;5.806;2023-06-14T06:32:04;20.40;99.90
62573;DHT22;48626;51.678;5.806;2023-06-14T06:34:30;20.40;99.90
62573;DHT22;48626;51.678;5.806;2023-06-14T06:36:55;20.50;99.90
62573;DHT22;48626;51.678;5.806;2023-06-14T06:39:21;20.70;99.90
62573;DHT22;48626;51.678;5.806;2023-06-14T06:41:47;20.80;99.90
62573;DHT22;48626;51.678;5.806;2023-06-14T06:44:12;20.80;99.90
62573;DHT22;48626;51.678;5.806;2023-06-14T06:46:38;20.90;99.90
62573;DHT22;48626;51.678;5.806;2023-06-14T06:49:08;21.00;99.90
62573;DHT22;48626;51.678;5.806;2023-06-14T06:51:35;21.00;99.90
62573;DHT22;48626;51.678;5.806;2023-06-14T06:54:02;21.10;99.90
62573;DHT22;48626;51.678;5.806;2023-06-14T06:56:28;21.20;99.90
62573;DHT22;48626;51.678;5.806;2023-06-14T06:58:54;21.30;99.90
62573;DHT22;48626;51.678;5.806;2023-06-14T07:01:19;21.30;99.90
62573;DHT22;48626;51.678;5.806;2023-06-14T07:03:45;21.50;99.90
62573;DHT22;48626;51.678;5.806;2023-06-14T07:06:12;21.60;99.90
62573;DHT22;48626;51.678;5.806;2023-06-14T07:08:37;21.70;99.90
62573;DHT22;48626;51.678;5.806;2023-06-14T07:11:04;21.80;99.90
62573;DHT22;48626;51.678;5.806;2023-06-14T07:13:31;21.80;99.90
62573;DHT22;48626;51.678;5.806;2023-06-14T07:16:00;21.80;99.90
62573;DHT22;48626;51.678;5.806;2023-06-14T07:18:26;21.90;99.90
62573;DHT22;48626;51.678;5.806;2023-06-14T07:20:52;22.00;99.90
62573;DHT22;48626;51.678;5.806;2023-06-14T07:23:19;22.00;99.90
62573;DHT22;48626;51.678;5.806;2023-06-14T07:25:45;22.00;99.90
62573;DHT22;48626;51.678;5.806;2023-06-14T07:28:11;22.10;99.90
62573;DHT22;48626;51.678;5.806;2023-06-14T07:30:36;22.20;99.90
62573;DHT22;48626;51.678;5.806;2023-06-14T07:33:02;22.30;99.90
62573;DHT22;48626;51.678;5.806;2023-06-14T07:35:28;22.40;99.90
62573;DHT22;48626;51.678;5.806;2023-06-14T07:37:54;22.50;99.90
62573;DHT22;48626;51.678;5.806;2023-06-14T07:40:19;22.50;99.90
62573;DHT22;48626;51.678;5.806;2023-06-14T07:42:45;22.50;99.90
62573;DHT22;48626;51.678;5.806;2023-06-14T07:45:13;22.60;99.90
62573;DHT22;48626;51.678;5.806;2023-06-14T07:47:39;22.70;99.90
62573;DHT22;48626;51.678;5.806;2023-06-14T07:50:05;22.70;99.90
62573;DHT22;48626;51.678;5.806;2023-06-14T07:52:31;22.80;99.90
62573;DHT22;48626;51.678;5.806;2023-06-14T07:54:56;22.90;99.90
62573;DHT22;48626;51.678;5.806;2023-06-14T07:57:22;23.00;99.90
62573;DHT22;48626;51.678;5.806;2023-06-14T07:59:48;23.10;99.90
62573;DHT22;48626;51.678;5.806;2023-06-14T08:02:14;23.10;99.90
62573;DHT22;48626;51.678;5.806;2023-06-14T08:04:39;23.20;99.90
62573;DHT22;48626;51.678;5.806;2023-06-14T08:07:06;23.30;99.90
62573;DHT22;48626;51.678;5.806;2023-06-14T08:09:32;23.30;99.90
62573;DHT22;48626;51.678;5.806;2023-06-14T08:11:58;23.40;99.90
62573;DHT22;48626;51.678;5.806;2023-06-14T08:14:23;23.40;99.90
62573;DHT22;48626;51.678;5.806;2023-06-14T08:16:49;23.50;99.90
62573;DHT22;48626;51.678;5.806;2023-06-14T08:19:15;23.60;99.90
62573;DHT22;48626;51.678;5.806;2023-06-14T08:21:42;23.70;99.90
62573;DHT22;48626;51.678;5.806;2023-06-14T08:24:10;23.70;99.90
62573;DHT22;48626;51.678;5.806;2023-06-14T08:26:38;23.80;99.90
62573;DHT22;48626;51.678;5.806;2023-06-14T08:29:04;23.90;99.90
62573;DHT22;48626;51.678;5.806;2023-06-14T08:31:32;24.00;99.90
62573;DHT22;48626;51.678;5.806;2023-06-14T08:33:58;24.00;99.90
62573;DHT22;48626;51.678;5.806;2023-06-14T08:36:24;24.10;99.90
62573;DHT22;48626;51.678;5.806;2023-06-14T08:38:49;24.20;99.90
62573;DHT22;48626;51.678;5.806;2023-06-14T08:41:20;24.30;99.90
62573;DHT22;48626;51.678;5.806;2023-06-14T08:43:47;24.30;99.90
62573;DHT22;48626;51.678;5.806;2023-06-14T08:46:14;24.30;99.90
62573;DHT22;48626;51.678;5.806;2023-06-14T08:48:49;24.40;99.90
62573;DHT22;48626;51.678;5.806;2023-06-14T08:51:18;24.50;99.90
62573;DHT22;48626;51.678;5.806;2023-06-14T08:53:44;24.70;99.90
62573;DHT22;48626;51.678;5.806;2023-06-14T08:56:11;24.80;99.90
62573;DHT22;48626;51.678;5.806;2023-06-14T08:58:42;24.80;99.90
62573;DHT22;48626;51.678;5.806;2023-06-14T09:01:13;24.70;99.90
62573;DHT22;48626;51.678;5.806;2023-06-14T09:03:42;24.70;99.90
62573;DHT22;48626;51.678;5.806;2023-06-14T09:06:08;24.80;99.90
62573;DHT22;48626;51.678;5.806;2023-06-14T09:08:46;24.80;99.90
62573;DHT22;48626;51.678;5.806;2023-06-14T09:11:13;24.80;99.90
62573;DHT22;48626;51.678;5.806;2023-06-14T09:13:40;24.80;99.90
62573;DHT22;48626;51.678;5.806;2023-06-14T09:16:07;24.90;99.90
62573;DHT22;48626;51.678;5.806;2023-06-14T09:18:36;24.90;99.90
62573;DHT22;48626;51.678;5.806;2023-06-14T09:21:02;25.00;99.90
62573;DHT22;48626;51.678;5.806;2023-06-14T09:23:28;25.00;99.90
62573;DHT22;48626;51.678;5.806;2023-06-14T09:25:54;25.00;99.90
62573;DHT22;48626;51.678;5.806;2023-06-14T09:28:20;25.10;99.90
62573;DHT22;48626;51.678;5.806;2023-06-14T09:30:48;25.10;99.90
62573;DHT22;48626;51.678;5.806;2023-06-14T09:33:17;25.20;99.90
62573;DHT22;48626;51.678;5.806;2023-06-14T09:35:46;25.30;99.90
62573;DHT22;48626;51.678;5.806;2023-06-14T09:38:11;25.30;99.90
62573;DHT22;48626;51.678;5.806;2023-06-14T09:40:37;25.40;99.90
62573;DHT22;48626;51.678;5.806;2023-06-14T09:43:07;25.50;99.90
62573;DHT22;48626;51.678;5.806;2023-06-14T09:45:36;25.60;99.90
62573;DHT22;48626;51.678;5.806;2023-06-14T09:48:05;25.60;99.90
62573;DHT22;48626;51.678;5.806;2023-06-14T09:50:31;25.70;99.90
62573;DHT22;48626;51.678;5.806;2023-06-14T09:53:06;25.80;99.90
62573;DHT22;48626;51.678;5.806;2023-06-14T09:55:35;25.90;99.90
62573;DHT22;48626;51.678;5.806;2023-06-14T09:58:06;25.90;99.90
62573;DHT22;48626;51.678;5.806;2023-06-14T10:00:32;25.90;99.90
62573;DHT22;48626;51.678;5.806;2023-06-14T10:03:03;26.00;99.90
62573;DHT22;48626;51.678;5.806;2023-06-14T10:05:32;26.20;99.90
62573;DHT22;48626;51.678;5.806;2023-06-14T10:08:08;26.20;99.90
62573;DHT22;48626;51.678;5.806;2023-06-14T10:10:33;26.10;99.90
62573;DHT22;48626;51.678;5.806;2023-06-14T10:12:59;26.30;99.90
62573;DHT22;48626;51.678;5.806;2023-06-14T10:15:48;26.30;99.90
62573;DHT22;48626;51.678;5.806;2023-06-14T10:18:48;26.50;99.90
62573;DHT22;48626;51.678;5.806;2023-06-14T10:21:22;26.50;99.90
62573;DHT22;48626;51.678;5.806;2023-06-14T10:23:50;26.60;99.90
62573;DHT22;48626;51.678;5.806;2023-06-14T10:26:23;26.60;99.90
62573;DHT22;48626;51.678;5.806;2023-06-14T10:28:58;26.70;99.90
62573;DHT22;48626;51.678;5.806;2023-06-14T10:31:40;26.70;99.90
62573;DHT22;48626;51.678;5.806;2023-06-14T10:34:05;26.90;99.90
62573;DHT22;48626;51.678;5.806;2023-06-14T10:36:31;26.90;99.90
62573;DHT22;48626;51.678;5.806;2023-06-14T10:39:01;27.00;99.90
62573;DHT22;48626;51.678;5.806;2023-06-14T10:41:29;27.00;99.90
62573;DHT22;48626;51.678;5.806;2023-06-14T10:46:49;27.20;99.90
62573;DHT22;48626;51.678;5.806;2023-06-14T10:49:18;27.40;99.90
62573;DHT22;48626;51.678;5.806;2023-06-14T10:51:53;27.50;99.90
62573;DHT22;48626;51.678;5.806;2023-06-14T10:54:22;27.50;99.90
62573;DHT22;48626;51.678;5.806;2023-06-14T10:56:53;27.60;99.90
62573;DHT22;48626;51.678;5.806;2023-06-14T10:59:20;27.60;99.90
62573;DHT22;48626;51.678;5.806;2023-06-14T11:04:52;28.00;99.90
62573;DHT22;48626;51.678;5.806;2023-06-14T11:12:27;28.10;99.90
62573;DHT22;48626;51.678;5.806;2023-06-14T11:14:53;28.20;99.90
62573;DHT22;48626;51.678;5.806;2023-06-14T11:17:19;28.30;99.90
62573;DHT22;48626;51.678;5.806;2023-06-14T11:19:45;28.40;99.90
62573;DHT22;48626;51.678;5.806;2023-06-14T11:22:12;28.60;99.90
62573;DHT22;48626;51.678;5.806;2023-06-14T11:24:37;28.70;99.90
62573;DHT22;48626;51.678;5.806;2023-06-14T11:27:03;28.80;99.90
62573;DHT22;48626;51.678;5.806;2023-06-14T11:29:29;28.80;99.90
62573;DHT22;48626;51.678;5.806;2023-06-14T11:31:56;29.00;99.90
62573;DHT22;48626;51.678;5.806;2023-06-14T11:34:21;29.20;99.90
62573;DHT22;48626;51.678;5.806;2023-06-14T11:36:47;29.30;99.90
62573;DHT22;48626;51.678;5.806;2023-06-14T11:39:13;29.30;99.90
62573;DHT22;48626;51.678;5.806;2023-06-14T11:41:43;29.20;99.90
62573;DHT22;48626;51.678;5.806;2023-06-14T11:44:10;29.20;99.90
62573;DHT22;48626;51.678;5.806;2023-06-14T11:46:37;29.30;99.90
62573;DHT22;48626;51.678;5.806;2023-06-14T11:49:04;29.30;99.90
62573;DHT22;48626;51.678;5.806;2023-06-14T11:51:34;29.50;99.90
62573;DHT22;48626;51.678;5.806;2023-06-14T11:54:01;29.50;99.90
62573;DHT22;48626;51.678;5.806;2023-06-14T11:56:29;29.60;99.90
62573;DHT22;48626;51.678;5.806;2023-06-14T11:58:55;29.50;99.90
62573;DHT22;48626;51.678;5.806;2023-06-14T12:01:23;29.50;99.90
62573;DHT22;48626;51.678;5.806;2023-06-14T12:03:53;29.40;99.90
62573;DHT22;48626;51.678;5.806;2023-06-14T12:06:28;29.30;99.90
62573;DHT22;48626;51.678;5.806;2023-06-14T12:08:57;29.60;99.90
62573;DHT22;48626;51.678;5.806;2023-06-14T12:11:23;29.60;99.90
62573;DHT22;48626;51.678;5.806;2023-06-14T12:13:49;29.80;99.90
62573;DHT22;48626;51.678;5.806;2023-06-14T12:16:14;30.00;99.90
62573;DHT22;48626;51.678;5.806;2023-06-14T12:18:41;29.80;99.90
62573;DHT22;48626;51.678;5.806;2023-06-14T12:21:09;29.80;99.90
62573;DHT22;48626;51.678;5.806;2023-06-14T12:26:05;29.90;99.90
62573;DHT22;48626;51.678;5.806;2023-06-14T12:28:31;30.30;99.90
62573;DHT22;48626;51.678;5.806;2023-06-14T12:30:57;30.50;99.90
62573;DHT22;48626;51.678;5.806;2023-06-14T12:33:24;30.60;99.90
62573;DHT22;48626;51.678;5.806;2023-06-14T12:35:50;30.50;99.90
62573;DHT22;48626;51.678;5.806;2023-06-14T12:38:16;30.60;99.90
62573;DHT22;48626;51.678;5.806;2023-06-14T12:40:42;30.70;99.90
62573;DHT22;48626;51.678;5.806;2023-06-14T12:43:08;30.80;99.90
62573;DHT22;48626;51.678;5.806;2023-06-14T12:45:34;31.00;99.90
62573;DHT22;48626;51.678;5.806;2023-06-14T12:47:59;31.10;99.90
62573;DHT22;48626;51.678;5.806;2023-06-14T12:50:25;31.30;99.90
62573;DHT22;48626;51.678;5.806;2023-06-14T12:52:51;31.40;99.90
62573;DHT22;48626;51.678;5.806;2023-06-14T12:55:17;31.40;99.90
62573;DHT22;48626;51.678;5.806;2023-06-14T12:57:43;31.40;99.90
62573;DHT22;48626;51.678;5.806;2023-06-14T13:00:09;31.50;99.90
62573;DHT22;48626;51.678;5.806;2023-06-14T13:02:35;31.60;99.90
62573;DHT22;48626;51.678;5.806;2023-06-14T13:05:01;31.40;99.90
62573;DHT22;48626;51.678;5.806;2023-06-14T13:07:29;31.40;99.90
62573;DHT22;48626;51.678;5.806;2023-06-14T13:09:54;31.70;99.90
62573;DHT22;48626;51.678;5.806;2023-06-14T13:12:20;31.80;99.90
62573;DHT22;48626;51.678;5.806;2023-06-14T13:14:46;32.10;99.90
62573;DHT22;48626;51.678;5.806;2023-06-14T13:17:11;32.20;99.90
62573;DHT22;48626;51.678;5.806;2023-06-14T13:19:37;32.30;99.90
62573;DHT22;48626;51.678;5.806;2023-06-14T13:22:03;32.20;99.90
62573;DHT22;48626;51.678;5.806;2023-06-14T13:24:29;32.10;99.90
62573;DHT22;48626;51.678;5.806;2023-06-14T13:26:55;32.30;99.90
62573;DHT22;48626;51.678;5.806;2023-06-14T13:29:22;32.40;99.90
62573;DHT22;48626;51.678;5.806;2023-06-14T13:31:48;32.70;99.90
62573;DHT22;48626;51.678;5.806;2023-06-14T13:34:13;32.90;99.90
62573;DHT22;48626;51.678;5.806;2023-06-14T13:36:39;32.80;99.90
62573;DHT22;48626;51.678;5.806;2023-06-14T13:39:05;32.90;99.90
62573;DHT22;48626;51.678;5.806;2023-06-14T13:41:31;33.10;99.90
62573;DHT22;48626;51.678;5.806;2023-06-14T13:43:59;33.10;99.90
62573;DHT22;48626;51.678;5.806;2023-06-14T13:46:25;33.30;99.90
62573;DHT22;48626;51.678;5.806;2023-06-14T13:48:53;33.40;99.90
62573;DHT22;48626;51.678;5.806;2023-06-14T13:51:25;33.20;99.90
62573;DHT22;48626;51.678;5.806;2023-06-14T13:53:53;33.20;99.90
62573;DHT22;48626;51.678;5.806;2023-06-14T13:56:24;33.30;99.90
62573;DHT22;48626;51.678;5.806;2023-06-14T13:59:16;33.20;99.90
62573;DHT22;48626;51.678;5.806;2023-06-14T14:01:44;33.50;99.90
62573;DHT22;48626;51.678;5.806;2023-06-14T14:04:10;34.00;99.90
62573;DHT22;48626;51.678;5.806;2023-06-14T14:06:39;34.40;99.90
62573;DHT22;48626;51.678;5.806;2023-06-14T14:09:05;34.80;99.90
62573;DHT22;48626;51.678;5.806;2023-06-14T14:11:37;34.80;99.90
62573;DHT22;48626;51.678;5.806;2023-06-14T14:14:05;35.00;99.90
62573;DHT22;48626;51.678;5.806;2023-06-14T14:16:33;35.30;99.90
62573;DHT22;48626;51.678;5.806;2023-06-14T14:19:02;35.40;99.90
62573;DHT22;48626;51.678;5.806;2023-06-14T14:21:33;35.70;99.90
62573;DHT22;48626;51.678;5.806;2023-06-14T14:23:59;36.00;99.90
62573;DHT22;48626;51.678;5.806;2023-06-14T14:26:28;35.80;99.90
62573;DHT22;48626;51.678;5.806;2023-06-14T14:29:07;35.80;99.90
62573;DHT22;48626;51.678;5.806;2023-06-14T14:31:46;35.70;99.90
62573;DHT22;48626;51.678;5.806;2023-06-14T14:34:22;35.80;99.90
62573;DHT22;48626;51.678;5.806;2023-06-14T14:36:48;36.00;99.90
62573;DHT22;48626;51.678;5.806;2023-06-14T14:39:14;36.20;99.90
62573;DHT22;48626;51.678;5.806;2023-06-14T14:41:42;36.30;99.90
62573;DHT22;48626;51.678;5.806;2023-06-14T14:44:08;36.20;99.90
62573;DHT22;48626;51.678;5.806;2023-06-14T14:46:42;36.10;99.90
62573;DHT22;48626;51.678;5.806;2023-06-14T14:49:18;36.30;99.90
62573;DHT22;48626;51.678;5.806;2023-06-14T14:52:01;36.70;99.90
62573;DHT22;48626;51.678;5.806;2023-06-14T14:54:43;36.70;99.90
62573;DHT22;48626;51.678;5.806;2023-06-14T14:57:14;36.80;99.90
62573;DHT22;48626;51.678;5.806;2023-06-14T14:59:42;37.10;99.90
62573;DHT22;48626;51.678;5.806;2023-06-14T15:02:18;37.20;99.90
62573;DHT22;48626;51.678;5.806;2023-06-14T15:04:51;37.40;99.90
62573;DHT22;48626;51.678;5.806;2023-06-14T15:07:27;37.50;99.90
62573;DHT22;48626;51.678;5.806;2023-06-14T15:09:59;37.40;99.90
62573;DHT22;48626;51.678;5.806;2023-06-14T15:12:27;37.40;99.90
62573;DHT22;48626;51.678;5.806;2023-06-14T15:14:57;37.30;99.90
62573;DHT22;48626;51.678;5.806;2023-06-14T15:17:40;37.40;99.90
62573;DHT22;48626;51.678;5.806;2023-06-14T15:20:08;37.50;99.90
62573;DHT22;48626;51.678;5.806;2023-06-14T15:22:34;37.40;99.90
62573;DHT22;48626;51.678;5.806;2023-06-14T15:25:00;37.40;99.90
62573;DHT22;48626;51.678;5.806;2023-06-14T15:27:26;37.50;99.90
62573;DHT22;48626;51.678;5.806;2023-06-14T15:29:51;37.40;99.90
62573;DHT22;48626;51.678;5.806;2023-06-14T15:32:17;37.50;99.90
62573;DHT22;48626;51.678;5.806;2023-06-14T15:34:43;38.00;99.90
62573;DHT22;48626;51.678;5.806;2023-06-14T15:37:08;38.20;99.90
62573;DHT22;48626;51.678;5.806;2023-06-14T15:39:34;38.30;99.90
62573;DHT22;48626;51.678;5.806;2023-06-14T15:42:00;38.10;99.90
62573;DHT22;48626;51.678;5.806;2023-06-14T15:44:26;37.90;99.90
62573;DHT22;48626;51.678;5.806;2023-06-14T15:46:52;38.10;99.90
62573;DHT22;48626;51.678;5.806;2023-06-14T15:49:18;38.10;99.90
62573;DHT22;48626;51.678;5.806;2023-06-14T15:51:44;38.00;99.90